createdAt,value
2023-05-27T00:00:16.116Z,1002.9
2023-05-27T00:01:59.802Z,999.6
2023-05-27T00:03:43.620Z,1001.1
2023-05-27T00:05:27.198Z,996.6
2023-05-27T00:07:10.901Z,993.9
2023-05-27T00:08:54.615Z,993.5
2023-05-27T00:10:38.412Z,986.9
2023-05-27T00:12:22.063Z,984.6
2023-05-27T00:14:05.757Z,983.4
2023-05-27T00:15:49.440Z,978.3
2023-05-27T00:17:33.181Z,978.6
2023-05-27T00:19:16.863Z,980
2023-05-27T00:21:00.689Z,980.2
2023-05-27T00:22:44.254Z,976.9
2023-05-27T00:24:27.942Z,971.1
2023-05-27T00:26:11.662Z,967.3
2023-05-27T00:27:55.403Z,965.7
2023-05-27T00:29:39.072Z,965.2
2023-05-27T00:31:22.904Z,964.1
2023-05-27T00:33:06.613Z,963.4
2023-05-27T00:34:50.170Z,962.1
2023-05-27T00:36:34.046Z,958.2
2023-05-27T00:38:17.699Z,951.1
2023-05-27T00:40:01.285Z,951
2023-05-27T00:41:45.119Z,951.6
2023-05-27T00:43:28.676Z,949.8
2023-05-27T00:52:07.366Z,937
2023-05-27T00:53:51.037Z,938.6
2023-05-27T00:55:34.743Z,938.1
2023-05-27T00:57:18.467Z,936.9
2023-05-27T00:59:02.008Z,935.8
2023-05-27T01:00:45.866Z,929.7
2023-05-27T01:02:29.423Z,926.1
2023-05-27T01:04:13.266Z,923.9
2023-05-27T01:05:56.937Z,922.6
2023-05-27T01:14:35.393Z,914.1
2023-05-27T01:16:19.026Z,914.4
2023-05-27T01:18:02.875Z,912.4
2023-05-27T01:19:46.583Z,910.9
2023-05-27T01:21:30.282Z,910.3
2023-05-27T01:23:13.939Z,909.3
2023-05-27T01:24:57.561Z,906.7
2023-05-27T01:26:41.264Z,903.6
2023-05-27T01:28:25.043Z,901.4
2023-05-27T01:30:08.672Z,900.4
2023-05-27T01:31:52.549Z,895.5
2023-05-27T01:33:36.074Z,892.9
2023-05-27T01:35:19.800Z,892.3
2023-05-27T01:37:03.462Z,890.9
2023-05-27T01:38:47.235Z,889.8
2023-05-27T01:40:30.910Z,888.9
2023-05-27T01:42:14.719Z,888.8
2023-05-27T01:43:58.277Z,883.6
2023-05-27T01:45:41.986Z,881.5
2023-05-27T01:47:25.690Z,880.3
2023-05-27T01:49:09.368Z,882.8
2023-05-27T01:50:53.184Z,880.6
2023-05-27T01:52:36.779Z,875.2
2023-05-27T01:54:20.646Z,875
2023-05-27T01:56:04.270Z,872.7
2023-05-27T01:57:48.038Z,871.7
2023-05-27T01:59:31.702Z,867.5
2023-05-27T02:01:15.310Z,865.2
2023-05-27T02:02:59.116Z,863.7
2023-05-27T02:04:42.692Z,864.1
2023-05-27T02:06:26.506Z,862.4
2023-05-27T02:08:10.117Z,861.4
2023-05-27T02:09:53.895Z,861.9
2023-05-27T02:11:37.604Z,857.4
2023-05-27T02:13:21.351Z,854.8
2023-05-27T02:15:04.921Z,851.5
2023-05-27T02:16:48.631Z,850.9
2023-05-27T02:18:32.347Z,850.6
2023-05-27T02:20:16.235Z,845.7
2023-05-27T02:21:59.783Z,841.9
2023-05-27T02:23:43.638Z,841.9
2023-05-27T02:25:27.264Z,840
2023-05-27T02:27:10.982Z,839.9
2023-05-27T02:28:54.565Z,842.4
2023-05-27T02:30:38.388Z,842.1
2023-05-27T02:32:22.131Z,840.2
2023-05-27T02:34:05.670Z,838.2
2023-05-27T02:35:49.360Z,836.6
2023-05-27T02:37:33.065Z,832.4
2023-05-27T02:39:16.852Z,830.2
2023-05-27T02:41:00.475Z,825.7
2023-05-27T02:42:44.332Z,825.3
2023-05-27T02:44:27.935Z,822.2
2023-05-27T02:46:11.626Z,819.5
2023-05-27T02:47:55.413Z,815.7
2023-05-27T02:49:39.005Z,815.9
2023-05-27T02:51:22.824Z,816.3
2023-05-27T02:53:06.454Z,814.6
2023-05-27T02:54:50.246Z,811.6
2023-05-27T02:56:33.822Z,812.1
2023-05-27T02:58:17.647Z,809.8
2023-05-27T03:00:01.295Z,803.9
2023-05-27T03:01:44.981Z,799.2
2023-05-27T03:03:28.748Z,800.7
2023-05-27T03:05:12.327Z,804
2023-05-27T03:06:56.027Z,803
2023-05-27T03:08:39.732Z,802.3
2023-05-27T03:10:23.483Z,799.6
2023-05-27T03:12:07.270Z,800.2
2023-05-27T03:13:50.856Z,800.6
2023-05-27T03:15:34.655Z,796.3
2023-05-27T03:17:18.239Z,793.8
2023-05-27T03:19:01.946Z,791.8
2023-05-27T03:20:45.849Z,790.2
2023-05-27T03:22:29.363Z,788.4
2023-05-27T03:24:13.257Z,786.2
2023-05-27T03:25:56.877Z,783.3
2023-05-27T03:27:40.465Z,783.2
2023-05-27T03:29:24.291Z,786.6
2023-05-27T03:31:07.974Z,783.8
2023-05-27T03:32:51.569Z,781.6
2023-05-27T03:34:35.395Z,785.3
2023-05-27T03:36:18.972Z,787.1
2023-05-27T03:38:02.706Z,785.1
2023-05-27T03:39:46.496Z,781.3
2023-05-27T03:41:30.194Z,777.3
2023-05-27T03:43:13.781Z,776.7
2023-05-27T03:44:57.462Z,773.9
2023-05-27T03:46:41.258Z,769.9
2023-05-27T03:48:25.011Z,767.5
2023-05-27T03:50:08.734Z,760.9
2023-05-27T03:51:52.434Z,759.3
2023-05-27T03:53:36.003Z,760.9
2023-05-27T03:55:19.841Z,760.7
2023-05-27T03:57:03.382Z,763.1
2023-05-27T03:58:47.197Z,761.3
2023-05-27T04:00:30.889Z,758.2
2023-05-27T04:02:14.640Z,755.6
2023-05-27T04:03:58.194Z,754
2023-05-27T04:05:42.149Z,753.5
2023-05-27T04:07:25.608Z,750.4
2023-05-27T04:09:09.371Z,748.2
2023-05-27T04:10:53.070Z,745.5
2023-05-27T04:12:36.899Z,742.8
2023-05-27T04:14:20.472Z,744.1
2023-05-27T04:16:04.169Z,744.5
2023-05-27T04:17:47.969Z,744.8
2023-05-27T04:19:31.652Z,743.5
2023-05-27T04:21:15.361Z,742.5
2023-05-27T04:22:59.059Z,743.6
2023-05-27T04:24:42.617Z,744.4
2023-05-27T04:26:26.365Z,744.4
2023-05-27T04:28:10.269Z,742.9
2023-05-27T04:29:53.799Z,743.9
2023-05-27T04:31:37.656Z,743.7
2023-05-27T04:33:21.113Z,739.5
2023-05-27T04:35:04.948Z,738.2
2023-05-27T04:36:48.696Z,736.6
2023-05-27T04:38:32.247Z,733.7
2023-05-27T04:40:15.940Z,729.4
2023-05-27T04:41:59.659Z,728.5
2023-05-27T04:43:43.462Z,728.4
2023-05-27T04:45:27.167Z,727.7
2023-05-27T04:47:10.901Z,727.9
2023-05-27T04:48:54.441Z,724.7
2023-05-27T04:50:38.340Z,722.7
2023-05-27T04:52:22.032Z,721.4
2023-05-27T04:54:05.537Z,718.1
2023-05-27T04:55:49.370Z,712.7
2023-05-27T04:57:33.141Z,710.5
2023-05-27T04:59:16.899Z,712.4
2023-05-27T05:01:00.520Z,712
2023-05-27T05:02:44.174Z,714.2
2023-05-27T05:04:27.892Z,716.2
2023-05-27T05:06:11.512Z,716.1
2023-05-27T05:07:55.218Z,715.5
2023-05-27T05:09:39.032Z,715.9
2023-05-27T05:11:22.710Z,712.1
2023-05-27T05:13:06.411Z,714
2023-05-27T05:14:50.142Z,714.5
2023-05-27T05:16:33.665Z,712.3
2023-05-27T05:18:17.361Z,709.3
2023-05-27T05:20:01.301Z,709.4
2023-05-27T05:21:44.966Z,711
2023-05-27T05:23:28.627Z,712.7
2023-05-27T05:25:12.380Z,713.5
2023-05-27T05:26:55.877Z,715.9
2023-05-27T05:28:39.779Z,715.3
2023-05-27T05:30:23.418Z,713.9
2023-05-27T05:32:07.205Z,713.3
2023-05-27T05:33:50.869Z,713.4
2023-05-27T05:35:34.512Z,711.5
2023-05-27T05:37:18.293Z,711.7
2023-05-27T05:39:01.955Z,711.8
2023-05-27T05:40:45.535Z,711
2023-05-27T05:42:29.182Z,708.9
2023-05-27T05:44:12.967Z,708
2023-05-27T05:45:56.617Z,708
2023-05-27T05:47:40.514Z,709
2023-05-27T05:49:24.004Z,705.9
2023-05-27T05:51:07.872Z,704.1
2023-05-27T05:52:51.537Z,702.7
2023-05-27T05:54:35.306Z,701.4
2023-05-27T05:56:18.996Z,700.4
2023-05-27T05:58:02.661Z,700.4
2023-05-27T05:59:46.265Z,695
2023-05-27T06:01:29.930Z,697.8
2023-05-27T06:03:13.872Z,699.2
2023-05-27T06:04:57.446Z,698.2
2023-05-27T06:06:41.049Z,695
2023-05-27T06:08:24.803Z,694
2023-05-27T06:10:08.415Z,692.3
2023-05-27T06:11:52.293Z,692.7
2023-05-27T06:13:35.815Z,690.1
2023-05-27T06:15:19.606Z,686.2
2023-05-27T06:17:03.304Z,685.3
2023-05-27T06:18:46.941Z,687
2023-05-27T06:20:30.799Z,685
2023-05-27T06:22:14.442Z,683.5
2023-05-27T06:23:58.195Z,680.9
2023-05-27T06:25:41.765Z,679.1
2023-05-27T06:27:25.586Z,680.1
2023-05-27T06:29:09.310Z,677.5
2023-05-27T06:30:52.969Z,676.1
2023-05-27T06:32:36.689Z,676.6
2023-05-27T06:34:20.416Z,675.5
2023-05-27T06:36:04.175Z,673.5
2023-05-27T06:37:47.665Z,671.4
2023-05-27T06:39:31.500Z,669.3
2023-05-27T06:41:15.236Z,666.8
2023-05-27T06:42:58.852Z,662.7
2023-05-27T06:44:42.704Z,661.8
2023-05-27T06:46:26.414Z,658.6
2023-05-27T06:48:10.043Z,659.4
2023-05-27T06:49:53.815Z,662.5
2023-05-27T06:51:37.372Z,663.5
2023-05-27T06:53:21.036Z,659.6
2023-05-27T06:55:04.971Z,659
2023-05-27T06:56:48.613Z,659
2023-05-27T06:58:32.219Z,655.4
2023-05-27T07:00:15.790Z,656.2
2023-05-27T07:01:59.490Z,658.9
2023-05-27T07:03:43.436Z,661.2
2023-05-27T07:05:26.995Z,657.1
2023-05-27T07:07:10.832Z,654
2023-05-27T07:08:54.359Z,656.8
2023-05-27T07:10:38.173Z,657.1
2023-05-27T07:12:21.888Z,658.7
2023-05-27T07:14:05.577Z,663.2
2023-05-27T07:15:49.276Z,664.2
2023-05-27T07:17:32.955Z,663.7
2023-05-27T07:19:16.592Z,664.5
2023-05-27T07:21:00.442Z,666.3
2023-05-27T07:22:44.091Z,667.4
2023-05-27T07:24:27.690Z,666.6
2023-05-27T07:26:11.349Z,663.8
2023-05-27T07:29:38.910Z,663.8
2023-05-27T07:31:22.461Z,664.1
2023-05-27T07:33:06.267Z,664.2
2023-05-27T07:34:49.839Z,661.8
2023-05-27T07:36:33.591Z,656.2
2023-05-27T07:38:17.340Z,654.1
2023-05-27T07:40:01.042Z,653.4
2023-05-27T07:41:44.834Z,665.2
2023-05-27T07:45:12.312Z,690.3
2023-05-27T07:46:55.843Z,729.8
2023-05-27T07:48:39.457Z,732.4
2023-05-27T07:50:23.288Z,737.8
2023-05-27T07:52:07.040Z,744.4
2023-05-27T07:53:50.697Z,748
2023-05-27T07:55:34.275Z,745.9
2023-05-27T07:57:18.068Z,744.3
2023-05-27T07:59:01.675Z,738
2023-05-27T08:00:45.383Z,731.3
2023-05-27T08:02:29.098Z,725.5
2023-05-27T08:04:12.807Z,720.4
2023-05-27T08:05:56.613Z,714
2023-05-27T08:07:40.351Z,709
2023-05-27T08:09:24.044Z,698.7
2023-05-27T08:11:07.664Z,693.4
2023-05-27T08:12:51.487Z,690.2
2023-05-27T08:14:35.145Z,686
2023-05-27T08:16:18.804Z,682.6
2023-05-27T08:18:02.415Z,682.3
2023-05-27T08:19:46.125Z,677.2
2023-05-27T08:21:29.980Z,671.2
2023-05-27T08:23:13.672Z,667.1
2023-05-27T08:24:57.362Z,664
2023-05-27T08:26:41.041Z,662.6
2023-05-27T08:28:24.620Z,662.9
2023-05-27T08:30:08.430Z,664
2023-05-27T08:31:52.032Z,664.8
2023-05-27T08:33:35.768Z,664.2
2023-05-27T08:35:19.717Z,666.1
2023-05-27T08:37:03.300Z,664.4
2023-05-27T08:38:47.000Z,662.5
2023-05-27T08:40:30.710Z,660.3
2023-05-27T08:42:14.233Z,657.7
2023-05-27T08:43:57.912Z,653.6
2023-05-27T08:45:41.621Z,651.4
2023-05-27T08:47:25.388Z,650.7
2023-05-27T08:49:09.166Z,652
2023-05-27T08:52:36.605Z,656.3
2023-05-27T08:54:20.324Z,653.8
2023-05-27T08:56:03.849Z,648.3
2023-05-27T08:57:47.694Z,647
2023-05-27T08:59:31.315Z,645
2023-05-27T09:01:14.960Z,639.8
2023-05-27T09:02:58.754Z,634.2
2023-05-27T09:04:42.516Z,624.2
2023-05-27T09:06:26.216Z,610.1
2023-05-27T09:08:09.855Z,600.2
2023-05-27T09:09:53.479Z,594.1
2023-05-27T09:11:37.326Z,588.6
2023-05-27T09:13:21.028Z,584.1
2023-05-27T09:15:04.787Z,578.3
2023-05-27T09:16:48.432Z,571.2
2023-05-27T09:18:32.175Z,566
2023-05-27T09:20:15.717Z,562
2023-05-27T09:21:59.618Z,557.2
2023-05-27T09:23:43.267Z,558.3
2023-05-27T09:25:26.981Z,554.9
2023-05-27T09:27:10.493Z,552.1
2023-05-27T09:28:54.385Z,546.5
2023-05-27T09:30:38.073Z,545.9
2023-05-27T09:32:21.804Z,548.4
2023-05-27T09:34:05.319Z,554.8
2023-05-27T09:35:49.209Z,555.9
2023-05-27T09:37:32.864Z,552.3
2023-05-27T09:39:16.529Z,549.7
2023-05-27T09:41:00.099Z,544.1
2023-05-27T09:42:43.981Z,535.9
2023-05-27T09:44:27.512Z,532.8
2023-05-27T09:46:11.389Z,531.6
2023-05-27T09:47:55.121Z,528.9
2023-05-27T09:49:38.766Z,527.7
2023-05-27T09:51:22.338Z,524
2023-05-27T09:53:06.199Z,520.2
2023-05-27T09:54:49.727Z,517
2023-05-27T09:56:33.619Z,512.9
2023-05-27T09:58:17.307Z,508
2023-05-27T10:00:00.831Z,507.7
2023-05-27T10:01:44.552Z,503.7
2023-05-27T10:03:28.366Z,500.2
2023-05-27T10:05:12.053Z,496.5
2023-05-27T10:06:55.825Z,493
2023-05-27T10:08:39.515Z,491.4
2023-05-27T10:10:23.054Z,487.8
2023-05-27T10:12:06.948Z,488.9
2023-05-27T10:13:50.529Z,490.5
2023-05-27T10:15:34.242Z,491.2
2023-05-27T10:17:17.857Z,491.5
2023-05-27T10:19:01.755Z,490.2
2023-05-27T10:20:45.424Z,489.5
2023-05-27T10:22:28.942Z,489.6
2023-05-27T10:24:12.660Z,486.3
2023-05-27T10:25:56.363Z,482.3
2023-05-27T10:27:40.080Z,480.9
2023-05-27T10:29:23.939Z,481
2023-05-27T10:31:07.685Z,482.4
2023-05-27T10:32:51.203Z,483
2023-05-27T10:34:35.010Z,483.3
2023-05-27T10:36:18.687Z,480.1
2023-05-27T10:38:02.408Z,478.4
2023-05-27T10:39:45.985Z,477.1
2023-05-27T10:41:29.679Z,476.8
2023-05-27T10:43:13.538Z,477.2
2023-05-27T10:44:57.103Z,475.3
2023-05-27T10:46:40.815Z,475.2
2023-05-27T10:48:24.718Z,475.2
2023-05-27T10:50:08.214Z,473.4
2023-05-27T10:51:51.921Z,471.1
2023-05-27T10:53:35.609Z,469.9
2023-05-27T10:55:19.307Z,479.4
2023-05-27T10:57:03.090Z,476.9
2023-05-27T10:58:46.712Z,471.8
2023-05-27T11:00:30.538Z,472.5
2023-05-27T11:02:14.300Z,471.3
2023-05-27T11:03:57.977Z,467.7
2023-05-27T11:05:41.525Z,464.9
2023-05-27T11:07:25.316Z,464.9
2023-05-27T11:09:09.131Z,464.7
2023-05-27T11:10:52.800Z,464.1
2023-05-27T11:12:36.330Z,468.7
2023-05-27T11:14:20.104Z,492.5
2023-05-27T11:16:03.905Z,535.2
2023-05-27T11:17:47.542Z,536
2023-05-27T11:19:31.251Z,527.2
2023-05-27T11:21:14.981Z,521.6
2023-05-27T11:22:58.562Z,545.2
2023-05-27T11:24:42.360Z,566.7
2023-05-27T11:26:26.125Z,551.1
2023-05-27T11:28:09.636Z,535.2
2023-05-27T11:29:53.559Z,517.4
2023-05-27T11:31:37.048Z,506.9
2023-05-27T11:33:20.885Z,500.3
2023-05-27T11:35:04.489Z,494.7
2023-05-27T11:36:48.159Z,488.7
2023-05-27T11:38:31.884Z,482.4
2023-05-27T11:40:15.674Z,480.8
2023-05-27T11:41:59.488Z,476.3
2023-05-27T11:43:42.984Z,473.4
2023-05-27T11:45:26.797Z,473.2
2023-05-27T11:47:10.414Z,471.7
2023-05-27T11:48:54.076Z,471.6
2023-05-27T11:50:37.784Z,471.9
2023-05-27T11:52:21.669Z,470
2023-05-27T11:54:05.191Z,469.8
2023-05-27T11:55:49.072Z,467.9
2023-05-27T11:59:16.453Z,463
2023-05-27T12:00:59.986Z,462.6
2023-05-27T12:02:43.692Z,460.6
2023-05-27T12:04:27.533Z,455.7
2023-05-27T12:06:11.103Z,453.6
2023-05-27T12:07:54.926Z,450.8
2023-05-27T12:09:38.645Z,450.7
2023-05-27T12:11:22.236Z,451.9
2023-05-27T12:13:05.904Z,450.9
2023-05-27T12:14:49.708Z,451.7
2023-05-27T12:16:33.332Z,450.7
2023-05-27T12:18:17.168Z,447.4
2023-05-27T12:20:00.726Z,446.6
2023-05-27T12:21:44.490Z,446.7
2023-05-27T12:23:28.298Z,445.5
2023-05-27T12:25:11.872Z,444
2023-05-27T12:26:55.746Z,442.8
2023-05-27T12:28:39.235Z,440.1
2023-05-27T12:30:23.154Z,437.8
2023-05-27T12:32:06.712Z,435.9
2023-05-27T12:33:50.444Z,434.6
2023-05-27T12:35:34.157Z,434.5
2023-05-27T12:37:17.876Z,431.3
2023-05-27T12:39:01.472Z,426.6
2023-05-27T12:40:45.124Z,427.3
2023-05-27T12:42:28.846Z,429.1
2023-05-27T12:44:12.564Z,430.5
2023-05-27T12:45:59.794Z,428.9
2023-05-27T19:58:03.511Z,831
2023-05-27T23:35:49.912Z,867.2
2023-05-27T23:37:32.278Z,858.8
2023-05-27T23:39:15.756Z,855.4
2023-05-27T23:40:59.462Z,851
2023-05-27T23:42:43.304Z,849.7
2023-05-27T23:44:26.843Z,847
2023-05-27T23:46:10.617Z,846.8
2023-05-27T23:47:54.271Z,847.2
2023-05-27T23:49:38.190Z,848
2023-05-27T23:51:21.811Z,846.6
2023-05-27T23:53:05.484Z,846.2
2023-05-27T23:54:49.289Z,847.6
2023-05-27T23:56:32.887Z,844.7
2023-05-27T23:58:16.509Z,841.4
